sensor_id;sensor_type;location;lat;lon;timestamp;P1;durP1;ratioP1;P2;durP2;ratioP2
17310;SDS011;8773;43.300;0.394;2023-08-01T00:00:44;5.55;;;5.10;;
17310;SDS011;8773;43.300;0.394;2023-08-01T00:03:12;5.95;;;5.45;;
17310;SDS011;8773;43.300;0.394;2023-08-01T00:05:39;6.57;;;5.50;;
17310;SDS011;8773;43.300;0.394;2023-08-01T00:08:07;5.75;;;5.28;;
17310;SDS011;8773;43.300;0.394;2023-08-01T00:10:36;6.28;;;5.80;;
17310;SDS011;8773;43.300;0.394;2023-08-01T00:13:04;5.97;;;5.47;;
17310;SDS011;8773;43.300;0.394;2023-08-01T00:15:31;6.03;;;5.53;;
17310;SDS011;8773;43.300;0.394;2023-08-01T00:17:59;6.15;;;5.55;;
17310;SDS011;8773;43.300;0.394;2023-08-01T00:20:27;6.10;;;5.60;;
17310;SDS011;8773;43.300;0.394;2023-08-01T00:22:54;6.15;;;5.65;;
17310;SDS011;8773;43.300;0.394;2023-08-01T00:25:22;6.35;;;5.75;;
17310;SDS011;8773;43.300;0.394;2023-08-01T00:27:51;5.82;;;5.38;;
17310;SDS011;8773;43.300;0.394;2023-08-01T00:30:18;6.43;;;5.40;;
17310;SDS011;8773;43.300;0.394;2023-08-01T00:32:47;6.05;;;5.40;;
17310;SDS011;8773;43.300;0.394;2023-08-01T00:35:14;6.07;;;5.57;;
17310;SDS011;8773;43.300;0.394;2023-08-01T00:37:42;5.97;;;5.40;;
17310;SDS011;8773;43.300;0.394;2023-08-01T00:40:10;6.55;;;6.00;;
17310;SDS011;8773;43.300;0.394;2023-08-01T00:42:38;6.30;;;5.75;;
17310;SDS011;8773;43.300;0.394;2023-08-01T00:45:08;6.18;;;5.60;;
17310;SDS011;8773;43.300;0.394;2023-08-01T00:47:36;6.30;;;5.70;;
17310;SDS011;8773;43.300;0.394;2023-08-01T00:50:05;5.72;;;5.22;;
17310;SDS011;8773;43.300;0.394;2023-08-01T00:52:33;5.97;;;5.47;;
17310;SDS011;8773;43.300;0.394;2023-08-01T00:55:01;5.63;;;5.15;;
17310;SDS011;8773;43.300;0.394;2023-08-01T00:57:29;5.65;;;5.15;;
17310;SDS011;8773;43.300;0.394;2023-08-01T00:59:57;5.25;;;4.75;;
17310;SDS011;8773;43.300;0.394;2023-08-01T01:02:26;4.82;;;4.53;;
17310;SDS011;8773;43.300;0.394;2023-08-01T01:04:54;5.93;;;4.88;;
17310;SDS011;8773;43.300;0.394;2023-08-01T01:07:21;5.55;;;5.15;;
17310;SDS011;8773;43.300;0.394;2023-08-01T01:09:50;5.38;;;4.97;;
17310;SDS011;8773;43.300;0.394;2023-08-01T01:12:18;5.47;;;5.07;;
17310;SDS011;8773;43.300;0.394;2023-08-01T01:14:45;5.38;;;4.88;;
17310;SDS011;8773;43.300;0.394;2023-08-01T01:17:13;5.47;;;4.97;;
17310;SDS011;8773;43.300;0.394;2023-08-01T01:19:42;5.82;;;5.32;;
17310;SDS011;8773;43.300;0.394;2023-08-01T01:22:11;5.80;;;5.43;;
17310;SDS011;8773;43.300;0.394;2023-08-01T01:24:39;5.57;;;5.07;;
17310;SDS011;8773;43.300;0.394;2023-08-01T01:27:09;5.10;;;4.63;;
17310;SDS011;8773;43.300;0.394;2023-08-01T01:29:37;5.57;;;5.07;;
17310;SDS011;8773;43.300;0.394;2023-08-01T01:32:07;5.05;;;4.65;;
17310;SDS011;8773;43.300;0.394;2023-08-01T01:34:35;7.85;;;5.22;;
17310;SDS011;8773;43.300;0.394;2023-08-01T01:37:03;5.70;;;5.30;;
17310;SDS011;8773;43.300;0.394;2023-08-01T01:39:32;4.95;;;4.53;;
17310;SDS011;8773;43.300;0.394;2023-08-01T01:42:00;5.63;;;4.90;;
17310;SDS011;8773;43.300;0.394;2023-08-01T01:44:27;5.68;;;5.15;;
17310;SDS011;8773;43.300;0.394;2023-08-01T01:46:55;5.82;;;5.32;;
17310;SDS011;8773;43.300;0.394;2023-08-01T01:49:23;7.18;;;5.80;;
17310;SDS011;8773;43.300;0.394;2023-08-01T01:51:50;5.50;;;4.97;;
17310;SDS011;8773;43.300;0.394;2023-08-01T01:54:18;5.95;;;5.47;;
17310;SDS011;8773;43.300;0.394;2023-08-01T01:56:47;5.80;;;4.95;;
17310;SDS011;8773;43.300;0.394;2023-08-01T01:59:14;5.22;;;4.78;;
17310;SDS011;8773;43.300;0.394;2023-08-01T02:01:42;5.75;;;5.25;;
17310;SDS011;8773;43.300;0.394;2023-08-01T02:04:09;5.95;;;4.72;;
17310;SDS011;8773;43.300;0.394;2023-08-01T02:06:37;5.20;;;4.75;;
17310;SDS011;8773;43.300;0.394;2023-08-01T02:09:05;5.40;;;4.97;;
17310;SDS011;8773;43.300;0.394;2023-08-01T02:11:33;5.18;;;4.78;;
17310;SDS011;8773;43.300;0.394;2023-08-01T02:14:02;4.90;;;4.47;;
17310;SDS011;8773;43.300;0.394;2023-08-01T02:16:30;5.85;;;5.30;;
17310;SDS011;8773;43.300;0.394;2023-08-01T02:18:58;5.03;;;4.53;;
17310;SDS011;8773;43.300;0.394;2023-08-01T02:21:25;5.07;;;4.57;;
17310;SDS011;8773;43.300;0.394;2023-08-01T02:23:53;5.10;;;4.60;;
17310;SDS011;8773;43.300;0.394;2023-08-01T02:26:20;6.72;;;4.88;;
17310;SDS011;8773;43.300;0.394;2023-08-01T02:28:48;5.03;;;4.63;;
17310;SDS011;8773;43.300;0.394;2023-08-01T02:31:17;5.13;;;4.63;;
17310;SDS011;8773;43.300;0.394;2023-08-01T02:33:45;6.47;;;4.68;;
17310;SDS011;8773;43.300;0.394;2023-08-01T02:36:12;4.88;;;4.47;;
17310;SDS011;8773;43.300;0.394;2023-08-01T02:38:40;8.05;;;5.43;;
17310;SDS011;8773;43.300;0.394;2023-08-01T02:41:07;5.07;;;4.40;;
17310;SDS011;8773;43.300;0.394;2023-08-01T02:43:35;5.75;;;4.85;;
17310;SDS011;8773;43.300;0.394;2023-08-01T02:46:02;5.20;;;4.30;;
17310;SDS011;8773;43.300;0.394;2023-08-01T02:48:31;4.30;;;3.90;;
17310;SDS011;8773;43.300;0.394;2023-08-01T02:50:59;6.53;;;4.53;;
17310;SDS011;8773;43.300;0.394;2023-08-01T02:53:26;5.03;;;4.63;;
17310;SDS011;8773;43.300;0.394;2023-08-01T02:55:54;4.68;;;4.30;;
17310;SDS011;8773;43.300;0.394;2023-08-01T02:58:22;5.40;;;4.43;;
17310;SDS011;8773;43.300;0.394;2023-08-01T03:00:49;4.55;;;4.15;;
17310;SDS011;8773;43.300;0.394;2023-08-01T03:03:20;5.45;;;4.20;;
17310;SDS011;8773;43.300;0.394;2023-08-01T03:05:49;4.60;;;4.20;;
17310;SDS011;8773;43.300;0.394;2023-08-01T03:08:16;5.20;;;4.80;;
17310;SDS011;8773;43.300;0.394;2023-08-01T03:10:44;5.20;;;4.70;;
17310;SDS011;8773;43.300;0.394;2023-08-01T03:13:12;5.03;;;4.60;;
17310;SDS011;8773;43.300;0.394;2023-08-01T03:15:39;4.90;;;4.50;;
17310;SDS011;8773;43.300;0.394;2023-08-01T03:18:07;5.32;;;4.72;;
17310;SDS011;8773;43.300;0.394;2023-08-01T03:20:34;5.32;;;4.70;;
17310;SDS011;8773;43.300;0.394;2023-08-01T03:23:03;6.60;;;4.50;;
17310;SDS011;8773;43.300;0.394;2023-08-01T03:25:31;5.68;;;4.35;;
17310;SDS011;8773;43.300;0.394;2023-08-01T03:27:59;5.43;;;4.83;;
17310;SDS011;8773;43.300;0.394;2023-08-01T03:30:30;5.23;;;4.73;;
17310;SDS011;8773;43.300;0.394;2023-08-01T03:32:58;4.87;;;4.47;;
17310;SDS011;8773;43.300;0.394;2023-08-01T03:35:26;5.00;;;4.57;;
17310;SDS011;8773;43.300;0.394;2023-08-01T03:37:54;4.65;;;4.35;;
17310;SDS011;8773;43.300;0.394;2023-08-01T03:40:23;5.25;;;4.53;;
17310;SDS011;8773;43.300;0.394;2023-08-01T03:42:50;5.78;;;4.55;;
17310;SDS011;8773;43.300;0.394;2023-08-01T03:45:18;5.00;;;4.23;;
17310;SDS011;8773;43.300;0.394;2023-08-01T03:47:48;5.28;;;4.78;;
17310;SDS011;8773;43.300;0.394;2023-08-01T03:50:16;4.30;;;3.85;;
17310;SDS011;8773;43.300;0.394;2023-08-01T03:52:47;4.90;;;4.50;;
17310;SDS011;8773;43.300;0.394;2023-08-01T03:55:14;4.50;;;4.18;;
17310;SDS011;8773;43.300;0.394;2023-08-01T03:57:44;4.88;;;4.55;;
17310;SDS011;8773;43.300;0.394;2023-08-01T04:00:12;4.65;;;4.35;;
17310;SDS011;8773;43.300;0.394;2023-08-01T04:02:40;5.07;;;4.63;;
17310;SDS011;8773;43.300;0.394;2023-08-01T04:05:08;5.23;;;4.83;;
17310;SDS011;8773;43.300;0.394;2023-08-01T04:07:35;5.20;;;4.70;;
17310;SDS011;8773;43.300;0.394;2023-08-01T04:10:04;4.72;;;4.43;;
17310;SDS011;8773;43.300;0.394;2023-08-01T04:12:33;4.50;;;4.18;;
17310;SDS011;8773;43.300;0.394;2023-08-01T04:15:02;5.55;;;5.05;;
17310;SDS011;8773;43.300;0.394;2023-08-01T04:17:30;4.93;;;4.50;;
17310;SDS011;8773;43.300;0.394;2023-08-01T04:19:58;5.07;;;4.67;;
17310;SDS011;8773;43.300;0.394;2023-08-01T04:22:25;5.35;;;4.85;;
17310;SDS011;8773;43.300;0.394;2023-08-01T04:24:53;5.20;;;4.63;;
17310;SDS011;8773;43.300;0.394;2023-08-01T04:27:20;5.07;;;4.53;;
17310;SDS011;8773;43.300;0.394;2023-08-01T04:29:48;4.75;;;4.35;;
17310;SDS011;8773;43.300;0.394;2023-08-01T04:32:20;5.37;;;4.87;;
17310;SDS011;8773;43.300;0.394;2023-08-01T04:34:48;5.00;;;4.60;;
17310;SDS011;8773;43.300;0.394;2023-08-01T04:37:15;5.20;;;4.73;;
17310;SDS011;8773;43.300;0.394;2023-08-01T04:39:43;4.53;;;4.20;;
17310;SDS011;8773;43.300;0.394;2023-08-01T04:42:11;5.20;;;4.77;;
17310;SDS011;8773;43.300;0.394;2023-08-01T04:44:38;5.63;;;5.13;;
17310;SDS011;8773;43.300;0.394;2023-08-01T04:47:06;6.77;;;4.93;;
17310;SDS011;8773;43.300;0.394;2023-08-01T04:49:35;5.60;;;5.10;;
17310;SDS011;8773;43.300;0.394;2023-08-01T04:52:06;5.30;;;4.87;;
17310;SDS011;8773;43.300;0.394;2023-08-01T04:54:34;5.23;;;4.77;;
17310;SDS011;8773;43.300;0.394;2023-08-01T04:57:02;5.00;;;4.50;;
17310;SDS011;8773;43.300;0.394;2023-08-01T04:59:30;5.37;;;4.97;;
17310;SDS011;8773;43.300;0.394;2023-08-01T05:01:58;6.13;;;5.63;;
17310;SDS011;8773;43.300;0.394;2023-08-01T05:04:25;5.55;;;4.90;;
17310;SDS011;8773;43.300;0.394;2023-08-01T05:06:54;6.00;;;4.72;;
17310;SDS011;8773;43.300;0.394;2023-08-01T05:09:22;5.20;;;4.60;;
17310;SDS011;8773;43.300;0.394;2023-08-01T05:11:49;5.67;;;4.33;;
17310;SDS011;8773;43.300;0.394;2023-08-01T05:14:17;5.47;;;4.90;;
17310;SDS011;8773;43.300;0.394;2023-08-01T05:16:47;4.87;;;4.47;;
17310;SDS011;8773;43.300;0.394;2023-08-01T05:19:14;5.38;;;4.88;;
17310;SDS011;8773;43.300;0.394;2023-08-01T05:21:42;5.33;;;4.37;;
17310;SDS011;8773;43.300;0.394;2023-08-01T05:24:11;5.07;;;4.68;;
17310;SDS011;8773;43.300;0.394;2023-08-01T05:26:38;5.80;;;4.40;;
17310;SDS011;8773;43.300;0.394;2023-08-01T05:29:06;5.23;;;4.33;;
17310;SDS011;8773;43.300;0.394;2023-08-01T05:31:34;4.65;;;4.15;;
17310;SDS011;8773;43.300;0.394;2023-08-01T05:34:01;5.13;;;4.25;;
17310;SDS011;8773;43.300;0.394;2023-08-01T05:36:29;4.90;;;4.50;;
17310;SDS011;8773;43.300;0.394;2023-08-01T05:38:56;5.23;;;4.57;;
17310;SDS011;8773;43.300;0.394;2023-08-01T05:41:25;4.72;;;4.32;;
17310;SDS011;8773;43.300;0.394;2023-08-01T05:43:53;5.03;;;4.60;;
17310;SDS011;8773;43.300;0.394;2023-08-01T05:46:20;5.35;;;4.50;;
17310;SDS011;8773;43.300;0.394;2023-08-01T05:48:48;5.13;;;4.00;;
17310;SDS011;8773;43.300;0.394;2023-08-01T05:51:15;4.75;;;4.32;;
17310;SDS011;8773;43.300;0.394;2023-08-01T05:53:43;4.40;;;4.00;;
17310;SDS011;8773;43.300;0.394;2023-08-01T05:56:10;4.00;;;3.78;;
17310;SDS011;8773;43.300;0.394;2023-08-01T05:58:40;4.47;;;4.07;;
17310;SDS011;8773;43.300;0.394;2023-08-01T06:01:07;4.38;;;4.00;;
17310;SDS011;8773;43.300;0.394;2023-08-01T06:03:35;4.60;;;3.90;;
17310;SDS011;8773;43.300;0.394;2023-08-01T06:06:03;4.45;;;4.05;;
17310;SDS011;8773;43.300;0.394;2023-08-01T06:08:30;3.40;;;3.20;;
17310;SDS011;8773;43.300;0.394;2023-08-01T06:10:58;4.60;;;3.33;;
17310;SDS011;8773;43.300;0.394;2023-08-01T06:13:25;3.97;;;3.63;;
17310;SDS011;8773;43.300;0.394;2023-08-01T06:15:54;4.00;;;3.47;;
17310;SDS011;8773;43.300;0.394;2023-08-01T06:18:22;3.47;;;3.17;;
17310;SDS011;8773;43.300;0.394;2023-08-01T06:20:49;3.65;;;3.35;;
17310;SDS011;8773;43.300;0.394;2023-08-01T06:23:17;3.65;;;3.33;;
17310;SDS011;8773;43.300;0.394;2023-08-01T06:25:45;4.07;;;3.03;;
17310;SDS011;8773;43.300;0.394;2023-08-01T06:28:12;3.45;;;3.25;;
17310;SDS011;8773;43.300;0.394;2023-08-01T06:30:40;4.05;;;3.65;;
17310;SDS011;8773;43.300;0.394;2023-08-01T06:33:09;3.47;;;3.20;;
17310;SDS011;8773;43.300;0.394;2023-08-01T06:35:36;3.70;;;3.50;;
17310;SDS011;8773;43.300;0.394;2023-08-01T06:38:04;3.58;;;3.33;;
17310;SDS011;8773;43.300;0.394;2023-08-01T06:40:32;3.85;;;3.55;;
17310;SDS011;8773;43.300;0.394;2023-08-01T06:42:59;3.95;;;3.65;;
17310;SDS011;8773;43.300;0.394;2023-08-01T06:45:29;4.10;;;3.80;;
17310;SDS011;8773;43.300;0.394;2023-08-01T06:47:57;4.60;;;4.10;;
17310;SDS011;8773;43.300;0.394;2023-08-01T06:50:26;4.15;;;3.83;;
17310;SDS011;8773;43.300;0.394;2023-08-01T06:52:54;4.45;;;4.05;;
17310;SDS011;8773;43.300;0.394;2023-08-01T06:55:21;4.40;;;4.00;;
17310;SDS011;8773;43.300;0.394;2023-08-01T06:57:48;4.13;;;3.83;;
17310;SDS011;8773;43.300;0.394;2023-08-01T07:00:16;4.30;;;3.90;;
17310;SDS011;8773;43.300;0.394;2023-08-01T07:02:44;4.20;;;3.80;;
17310;SDS011;8773;43.300;0.394;2023-08-01T07:05:14;4.75;;;4.35;;
17310;SDS011;8773;43.300;0.394;2023-08-01T07:07:43;4.22;;;3.83;;
17310;SDS011;8773;43.300;0.394;2023-08-01T07:10:11;4.50;;;4.10;;
17310;SDS011;8773;43.300;0.394;2023-08-01T07:12:38;4.70;;;4.40;;
17310;SDS011;8773;43.300;0.394;2023-08-01T07:15:06;4.60;;;3.83;;
17310;SDS011;8773;43.300;0.394;2023-08-01T07:17:35;4.38;;;3.92;;
17310;SDS011;8773;43.300;0.394;2023-08-01T07:20:03;3.90;;;3.70;;
17310;SDS011;8773;43.300;0.394;2023-08-01T07:22:31;4.43;;;4.13;;
17310;SDS011;8773;43.300;0.394;2023-08-01T07:24:59;3.70;;;3.40;;
17310;SDS011;8773;43.300;0.394;2023-08-01T07:27:27;3.85;;;3.60;;
17310;SDS011;8773;43.300;0.394;2023-08-01T07:29:54;4.97;;;3.55;;
17310;SDS011;8773;43.300;0.394;2023-08-01T07:32:22;4.07;;;3.78;;
17310;SDS011;8773;43.300;0.394;2023-08-01T07:34:49;3.85;;;3.50;;
17310;SDS011;8773;43.300;0.394;2023-08-01T07:37:17;3.60;;;3.30;;
17310;SDS011;8773;43.300;0.394;2023-08-01T07:39:44;3.42;;;3.13;;
17310;SDS011;8773;43.300;0.394;2023-08-01T07:42:13;3.13;;;3.00;;
17310;SDS011;8773;43.300;0.394;2023-08-01T07:44:43;4.22;;;3.80;;
17310;SDS011;8773;43.300;0.394;2023-08-01T07:47:10;3.60;;;3.40;;
17310;SDS011;8773;43.300;0.394;2023-08-01T07:49:38;3.58;;;3.30;;
17310;SDS011;8773;43.300;0.394;2023-08-01T07:52:06;3.10;;;2.90;;
17310;SDS011;8773;43.300;0.394;2023-08-01T07:54:36;3.10;;;2.90;;
17310;SDS011;8773;43.300;0.394;2023-08-01T07:57:04;3.22;;;3.03;;
17310;SDS011;8773;43.300;0.394;2023-08-01T07:59:33;3.22;;;3.03;;
17310;SDS011;8773;43.300;0.394;2023-08-01T08:02:01;3.00;;;2.80;;
17310;SDS011;8773;43.300;0.394;2023-08-01T08:04:28;3.50;;;3.20;;
17310;SDS011;8773;43.300;0.394;2023-08-01T08:06:56;3.33;;;3.13;;
17310;SDS011;8773;43.300;0.394;2023-08-01T08:09:23;3.50;;;3.25;;
17310;SDS011;8773;43.300;0.394;2023-08-01T08:11:51;3.50;;;3.20;;
17310;SDS011;8773;43.300;0.394;2023-08-01T08:14:19;3.40;;;3.20;;
17310;SDS011;8773;43.300;0.394;2023-08-01T08:16:47;4.75;;;3.33;;
17310;SDS011;8773;43.300;0.394;2023-08-01T08:19:15;5.70;;;3.35;;
17310;SDS011;8773;43.300;0.394;2023-08-01T08:21:43;3.38;;;3.17;;
17310;SDS011;8773;43.300;0.394;2023-08-01T08:24:10;3.25;;;3.05;;
17310;SDS011;8773;43.300;0.394;2023-08-01T08:26:38;3.60;;;3.15;;
17310;SDS011;8773;43.300;0.394;2023-08-01T08:29:06;4.50;;;3.08;;
17310;SDS011;8773;43.300;0.394;2023-08-01T08:31:33;4.32;;;3.10;;
17310;SDS011;8773;43.300;0.394;2023-08-01T08:34:02;3.25;;;2.70;;
17310;SDS011;8773;43.300;0.394;2023-08-01T08:36:30;3.53;;;3.22;;
17310;SDS011;8773;43.300;0.394;2023-08-01T08:38:59;2.80;;;2.70;;
17310;SDS011;8773;43.300;0.394;2023-08-01T08:41:26;3.08;;;2.88;;
17310;SDS011;8773;43.300;0.394;2023-08-01T08:43:56;3.22;;;2.92;;
17310;SDS011;8773;43.300;0.394;2023-08-01T08:46:25;2.90;;;2.65;;
17310;SDS011;8773;43.300;0.394;2023-08-01T08:49:06;2.67;;;2.58;;
17310;SDS011;8773;43.300;0.394;2023-08-01T08:51:34;2.70;;;2.60;;
17310;SDS011;8773;43.300;0.394;2023-08-01T08:54:04;2.70;;;2.50;;
17310;SDS011;8773;43.300;0.394;2023-08-01T08:56:33;2.65;;;2.55;;
17310;SDS011;8773;43.300;0.394;2023-08-01T08:59:01;2.40;;;2.30;;
17310;SDS011;8773;43.300;0.394;2023-08-01T09:01:29;2.65;;;2.45;;
17310;SDS011;8773;43.300;0.394;2023-08-01T09:03:58;2.35;;;2.25;;
17310;SDS011;8773;43.300;0.394;2023-08-01T09:06:31;3.13;;;2.92;;
17310;SDS011;8773;43.300;0.394;2023-08-01T09:09:02;2.55;;;2.40;;
17310;SDS011;8773;43.300;0.394;2023-08-01T09:11:40;2.42;;;2.20;;
17310;SDS011;8773;43.300;0.394;2023-08-01T09:14:11;1.92;;;1.83;;
17310;SDS011;8773;43.300;0.394;2023-08-01T09:16:42;2.10;;;2.00;;
17310;SDS011;8773;43.300;0.394;2023-08-01T09:19:10;2.40;;;2.20;;
17310;SDS011;8773;43.300;0.394;2023-08-01T09:21:44;3.83;;;2.17;;
17310;SDS011;8773;43.300;0.394;2023-08-01T09:24:12;2.28;;;2.17;;
17310;SDS011;8773;43.300;0.394;2023-08-01T09:26:41;2.33;;;2.10;;
17310;SDS011;8773;43.300;0.394;2023-08-01T09:29:10;2.70;;;2.60;;
17310;SDS011;8773;43.300;0.394;2023-08-01T09:31:38;2.80;;;2.60;;
17310;SDS011;8773;43.300;0.394;2023-08-01T09:34:17;3.25;;;2.33;;
17310;SDS011;8773;43.300;0.394;2023-08-01T09:36:47;3.17;;;2.88;;
17310;SDS011;8773;43.300;0.394;2023-08-01T09:39:15;2.50;;;2.35;;
17310;SDS011;8773;43.300;0.394;2023-08-01T09:41:44;2.72;;;2.60;;
17310;SDS011;8773;43.300;0.394;2023-08-01T09:44:11;2.50;;;2.40;;
17310;SDS011;8773;43.300;0.394;2023-08-01T09:46:42;2.70;;;2.50;;
17310;SDS011;8773;43.300;0.394;2023-08-01T09:49:11;2.50;;;2.30;;
17310;SDS011;8773;43.300;0.394;2023-08-01T09:51:50;2.20;;;2.10;;
17310;SDS011;8773;43.300;0.394;2023-08-01T09:54:18;2.42;;;2.33;;
17310;SDS011;8773;43.300;0.394;2023-08-01T09:56:48;2.42;;;2.33;;
17310;SDS011;8773;43.300;0.394;2023-08-01T09:59:18;2.70;;;2.45;;
17310;SDS011;8773;43.300;0.394;2023-08-01T10:01:47;2.38;;;2.28;;
17310;SDS011;8773;43.300;0.394;2023-08-01T10:04:18;2.50;;;2.30;;
17310;SDS011;8773;43.300;0.394;2023-08-01T10:06:50;2.47;;;2.38;;
17310;SDS011;8773;43.300;0.394;2023-08-01T10:09:21;2.10;;;2.00;;
17310;SDS011;8773;43.300;0.394;2023-08-01T10:11:49;2.08;;;1.98;;
17310;SDS011;8773;43.300;0.394;2023-08-01T10:14:19;2.17;;;2.08;;
17310;SDS011;8773;43.300;0.394;2023-08-01T10:16:46;2.80;;;2.60;;
17310;SDS011;8773;43.300;0.394;2023-08-01T10:19:15;2.17;;;2.08;;
17310;SDS011;8773;43.300;0.394;2023-08-01T10:21:44;1.95;;;1.85;;
17310;SDS011;8773;43.300;0.394;2023-08-01T10:24:15;1.92;;;1.83;;
17310;SDS011;8773;43.300;0.394;2023-08-01T10:26:44;1.80;;;1.70;;
17310;SDS011;8773;43.300;0.394;2023-08-01T10:29:12;2.20;;;2.10;;
17310;SDS011;8773;43.300;0.394;2023-08-01T10:31:49;3.35;;;2.67;;
17310;SDS011;8773;43.300;0.394;2023-08-01T10:34:18;1.58;;;1.58;;
17310;SDS011;8773;43.300;0.394;2023-08-01T10:36:52;1.60;;;1.60;;
17310;SDS011;8773;43.300;0.394;2023-08-01T10:39:26;1.63;;;1.52;;
17310;SDS011;8773;43.300;0.394;2023-08-01T10:41:58;1.85;;;1.85;;
17310;SDS011;8773;43.300;0.394;2023-08-01T10:44:27;1.63;;;1.63;;
17310;SDS011;8773;43.300;0.394;2023-08-01T10:46:59;1.60;;;1.50;;
17310;SDS011;8773;43.300;0.394;2023-08-01T10:49:34;1.80;;;1.70;;
17310;SDS011;8773;43.300;0.394;2023-08-01T10:52:03;1.70;;;1.70;;
17310;SDS011;8773;43.300;0.394;2023-08-01T10:54:43;1.80;;;1.70;;
17310;SDS011;8773;43.300;0.394;2023-08-01T10:57:15;1.40;;;1.40;;
17310;SDS011;8773;43.300;0.394;2023-08-01T10:59:43;1.65;;;1.65;;
17310;SDS011;8773;43.300;0.394;2023-08-01T11:02:11;1.90;;;1.80;;
17310;SDS011;8773;43.300;0.394;2023-08-01T11:04:39;2.10;;;2.00;;
17310;SDS011;8773;43.300;0.394;2023-08-01T11:07:07;1.95;;;1.85;;
17310;SDS011;8773;43.300;0.394;2023-08-01T11:09:42;2.35;;;1.63;;
17310;SDS011;8773;43.300;0.394;2023-08-01T11:12:10;1.90;;;1.80;;
17310;SDS011;8773;43.300;0.394;2023-08-01T11:14:38;2.33;;;1.75;;
17310;SDS011;8773;43.300;0.394;2023-08-01T11:17:05;2.05;;;1.95;;
17310;SDS011;8773;43.300;0.394;2023-08-01T11:19:33;1.88;;;1.70;;
17310;SDS011;8773;43.300;0.394;2023-08-01T11:22:08;1.67;;;1.60;;
17310;SDS011;8773;43.300;0.394;2023-08-01T11:24:36;2.17;;;1.90;;
17310;SDS011;8773;43.300;0.394;2023-08-01T11:27:06;1.70;;;1.60;;
17310;SDS011;8773;43.300;0.394;2023-08-01T11:29:37;1.55;;;1.45;;
17310;SDS011;8773;43.300;0.394;2023-08-01T11:32:05;1.63;;;1.52;;
17310;SDS011;8773;43.300;0.394;2023-08-01T11:34:39;1.67;;;1.58;;
17310;SDS011;8773;43.300;0.394;2023-08-01T11:37:09;1.77;;;1.52;;
17310;SDS011;8773;43.300;0.394;2023-08-01T11:39:37;1.60;;;1.60;;
17310;SDS011;8773;43.300;0.394;2023-08-01T11:42:09;1.65;;;1.40;;
17310;SDS011;8773;43.300;0.394;2023-08-01T11:44:42;1.42;;;1.42;;
17310;SDS011;8773;43.300;0.394;2023-08-01T11:47:11;1.38;;;1.38;;
17310;SDS011;8773;43.300;0.394;2023-08-01T11:49:39;1.52;;;1.50;;
17310;SDS011;8773;43.300;0.394;2023-08-01T11:52:22;1.60;;;1.50;;
17310;SDS011;8773;43.300;0.394;2023-08-01T11:54:50;1.48;;;1.38;;
17310;SDS011;8773;43.300;0.394;2023-08-01T11:57:19;1.90;;;1.50;;
17310;SDS011;8773;43.300;0.394;2023-08-01T11:59:47;1.48;;;1.42;;
17310;SDS011;8773;43.300;0.394;2023-08-01T12:02:21;3.40;;;1.48;;
17310;SDS011;8773;43.300;0.394;2023-08-01T12:04:50;1.30;;;1.30;;
17310;SDS011;8773;43.300;0.394;2023-08-01T12:07:18;1.63;;;1.52;;
17310;SDS011;8773;43.300;0.394;2023-08-01T12:09:54;1.73;;;1.63;;
17310;SDS011;8773;43.300;0.394;2023-08-01T12:12:27;1.88;;;1.77;;
17310;SDS011;8773;43.300;0.394;2023-08-01T12:14:55;2.80;;;2.00;;
17310;SDS011;8773;43.300;0.394;2023-08-01T12:17:23;2.25;;;1.90;;
17310;SDS011;8773;43.300;0.394;2023-08-01T12:19:50;1.88;;;1.77;;
17310;SDS011;8773;43.300;0.394;2023-08-01T12:22:18;1.75;;;1.63;;
17310;SDS011;8773;43.300;0.394;2023-08-01T12:24:45;1.80;;;1.65;;
17310;SDS011;8773;43.300;0.394;2023-08-01T12:27:13;1.50;;;1.40;;
17310;SDS011;8773;43.300;0.394;2023-08-01T12:29:42;1.50;;;1.50;;
17310;SDS011;8773;43.300;0.394;2023-08-01T12:32:10;1.25;;;1.25;;
17310;SDS011;8773;43.300;0.394;2023-08-01T12:34:37;1.40;;;1.30;;
17310;SDS011;8773;43.300;0.394;2023-08-01T12:37:05;2.05;;;1.40;;
17310;SDS011;8773;43.300;0.394;2023-08-01T12:39:32;1.55;;;1.50;;
17310;SDS011;8773;43.300;0.394;2023-08-01T12:42:00;1.30;;;1.30;;
17310;SDS011;8773;43.300;0.394;2023-08-01T12:44:27;2.78;;;1.70;;
17310;SDS011;8773;43.300;0.394;2023-08-01T12:46:56;1.40;;;1.40;;
17310;SDS011;8773;43.300;0.394;2023-08-01T12:49:24;1.63;;;1.52;;
17310;SDS011;8773;43.300;0.394;2023-08-01T12:51:51;1.50;;;1.50;;
17310;SDS011;8773;43.300;0.394;2023-08-01T12:54:19;1.10;;;1.10;;
17310;SDS011;8773;43.300;0.394;2023-08-01T12:56:46;1.27;;;1.27;;
17310;SDS011;8773;43.300;0.394;2023-08-01T12:59:14;1.10;;;1.10;;
17310;SDS011;8773;43.300;0.394;2023-08-01T13:01:41;1.15;;;1.15;;
17310;SDS011;8773;43.300;0.394;2023-08-01T13:04:10;1.33;;;1.33;;
17310;SDS011;8773;43.300;0.394;2023-08-01T13:06:38;1.65;;;1.65;;
17310;SDS011;8773;43.300;0.394;2023-08-01T13:09:06;1.38;;;1.35;;
17310;SDS011;8773;43.300;0.394;2023-08-01T13:11:33;1.45;;;1.35;;
17310;SDS011;8773;43.300;0.394;2023-08-01T13:14:01;1.10;;;1.10;;
17310;SDS011;8773;43.300;0.394;2023-08-01T13:16:28;1.10;;;1.10;;
17310;SDS011;8773;43.300;0.394;2023-08-01T13:18:57;1.10;;;1.10;;
17310;SDS011;8773;43.300;0.394;2023-08-01T13:21:26;1.55;;;1.38;;
17310;SDS011;8773;43.300;0.394;2023-08-01T13:23:53;1.88;;;1.55;;
17310;SDS011;8773;43.300;0.394;2023-08-01T13:26:21;1.45;;;1.40;;
17310;SDS011;8773;43.300;0.394;2023-08-01T13:28:48;1.58;;;1.58;;
17310;SDS011;8773;43.300;0.394;2023-08-01T13:31:16;1.30;;;1.30;;
17310;SDS011;8773;43.300;0.394;2023-08-01T13:33:43;3.13;;;1.65;;
17310;SDS011;8773;43.300;0.394;2023-08-01T13:36:11;1.20;;;1.20;;
17310;SDS011;8773;43.300;0.394;2023-08-01T13:38:40;1.25;;;1.25;;
17310;SDS011;8773;43.300;0.394;2023-08-01T13:41:07;1.30;;;1.25;;
17310;SDS011;8773;43.300;0.394;2023-08-01T13:43:35;1.65;;;1.40;;
17310;SDS011;8773;43.300;0.394;2023-08-01T13:46:07;1.60;;;1.50;;
17310;SDS011;8773;43.300;0.394;2023-08-01T13:48:53;2.00;;;1.70;;
17310;SDS011;8773;43.300;0.394;2023-08-01T13:51:22;1.60;;;1.50;;
17310;SDS011;8773;43.300;0.394;2023-08-01T13:53:51;1.40;;;1.40;;
17310;SDS011;8773;43.300;0.394;2023-08-01T13:56:18;1.67;;;1.58;;
17310;SDS011;8773;43.300;0.394;2023-08-01T13:58:48;1.70;;;1.58;;
17310;SDS011;8773;43.300;0.394;2023-08-01T14:01:15;1.50;;;1.40;;
17310;SDS011;8773;43.300;0.394;2023-08-01T14:03:43;1.00;;;0.93;;
17310;SDS011;8773;43.300;0.394;2023-08-01T14:06:11;0.90;;;0.90;;
17310;SDS011;8773;43.300;0.394;2023-08-01T14:08:41;1.33;;;0.90;;
17310;SDS011;8773;43.300;0.394;2023-08-01T14:11:10;1.50;;;1.05;;
17310;SDS011;8773;43.300;0.394;2023-08-01T14:13:37;1.60;;;1.40;;
17310;SDS011;8773;43.300;0.394;2023-08-01T14:16:05;1.88;;;1.40;;
17310;SDS011;8773;43.300;0.394;2023-08-01T14:18:32;1.60;;;1.17;;
17310;SDS011;8773;43.300;0.394;2023-08-01T14:21:00;0.98;;;0.98;;
17310;SDS011;8773;43.300;0.394;2023-08-01T14:23:27;2.05;;;1.00;;
17310;SDS011;8773;43.300;0.394;2023-08-01T14:25:57;1.20;;;1.10;;
17310;SDS011;8773;43.300;0.394;2023-08-01T14:28:26;1.48;;;0.80;;
17310;SDS011;8773;43.300;0.394;2023-08-01T14:30:53;1.55;;;0.60;;
17310;SDS011;8773;43.300;0.394;2023-08-01T14:33:21;0.85;;;0.80;;
17310;SDS011;8773;43.300;0.394;2023-08-01T14:35:48;0.98;;;0.98;;
17310;SDS011;8773;43.300;0.394;2023-08-01T14:38:16;0.93;;;0.93;;
17310;SDS011;8773;43.300;0.394;2023-08-01T14:40:43;2.50;;;1.20;;
17310;SDS011;8773;43.300;0.394;2023-08-01T14:43:16;0.98;;;0.98;;
17310;SDS011;8773;43.300;0.394;2023-08-01T14:45:45;1.00;;;1.00;;
17310;SDS011;8773;43.300;0.394;2023-08-01T14:48:13;1.10;;;1.10;;
17310;SDS011;8773;43.300;0.394;2023-08-01T14:50:40;0.85;;;0.85;;
17310;SDS011;8773;43.300;0.394;2023-08-01T14:53:08;1.20;;;1.13;;
17310;SDS011;8773;43.300;0.394;2023-08-01T14:55:35;1.10;;;1.10;;
17310;SDS011;8773;43.300;0.394;2023-08-01T14:58:03;1.00;;;1.00;;
17310;SDS011;8773;43.300;0.394;2023-08-01T15:00:33;1.00;;;1.00;;
17310;SDS011;8773;43.300;0.394;2023-08-01T15:03:03;1.13;;;1.13;;
17310;SDS011;8773;43.300;0.394;2023-08-01T15:05:30;1.00;;;1.00;;
17310;SDS011;8773;43.300;0.394;2023-08-01T15:07:58;0.93;;;0.93;;